Time,TemperatureF,DewpointF,PressureIn,WindDirection,WindDirectionDegrees,WindSpeedMPH,WindSpeedGustMPH,Humidity,HourlyPrecipIn,Conditions,Clouds,dailyrainin,SoftwareType,DateUTC
2013-09-06 00:05:00,74.4,57.0,29.62,West,271,0.0,0.0,54,0.00,,,0.00,weatherlink.com 1.10,2013-09-06 06:05:00,
2013-09-06 00:20:00,73.3,57.0,29.62,West,273,0.0,0.0,57,0.00,,,0.00,weatherlink.com 1.10,2013-09-06 06:20:00,
2013-09-06 00:35:00,72.9,58.0,29.62,West,273,0.0,0.0,59,0.00,,,0.00,weatherlink.com 1.10,2013-09-06 06:35:00,
2013-09-06 00:50:00,73.2,58.0,29.62,WNW,299,0.0,1.0,59,0.00,,,0.00,weatherlink.com 1.10,2013-09-06 06:50:00,
2013-09-06 01:05:00,71.5,58.0,29.63,WSW,257,0.0,0.0,62,0.00,,,0.00,weatherlink.com 1.10,2013-09-06 07:05:00,
2013-09-06 01:20:00,70.1,59.0,29.63,SSE,152,0.0,1.0,68,0.00,,,0.00,weatherlink.com 1.10,2013-09-06 07:20:00,
2013-09-06 01:35:00,68.9,59.0,29.62,SSE,153,0.0,0.0,71,0.00,,,0.00,weatherlink.com 1.10,2013-09-06 07:35:00,
2013-09-06 01:50:00,68.4,59.0,29.62,NW,305,0.0,1.0,71,0.00,,,0.00,weatherlink.com 1.10,2013-09-06 07:50:00,
2013-09-06 02:05:00,69.9,59.0,29.62,WSW,248,0.0,0.0,69,0.00,,,0.00,weatherlink.com 1.10,2013-09-06 08:05:00,
2013-09-06 02:20:00,68.4,59.0,29.63,WSW,252,0.0,0.0,73,0.00,,,0.00,weatherlink.com 1.10,2013-09-06 08:20:00,
2013-09-06 02:35:00,68.1,59.0,29.62,NW,316,0.0,0.0,73,0.00,,,0.00,weatherlink.com 1.10,2013-09-06 08:35:00,
2013-09-06 02:50:00,68.2,59.0,29.62,WNW,285,0.0,0.0,72,0.00,,,0.00,weatherlink.com 1.10,2013-09-06 08:50:00,
2013-09-06 03:05:00,68.0,60.0,29.62,WNW,285,0.0,0.0,75,0.00,,,0.00,weatherlink.com 1.10,2013-09-06 09:05:00,
2013-09-06 03:20:00,67.3,60.0,29.62,WSW,253,0.0,0.0,76,0.00,,,0.00,weatherlink.com 1.10,2013-09-06 09:20:00,
2013-09-06 03:36:00,67.2,60.0,29.62,WSW,255,0.0,0.0,77,0.00,,,0.00,weatherlink.com 1.10,2013-09-06 09:36:00,
2013-09-06 03:51:00,67.1,60.0,29.62,SSE,154,0.0,1.0,78,0.00,,,0.00,weatherlink.com 1.10,2013-09-06 09:51:00,
2013-09-06 04:06:00,67.4,60.0,29.63,SSW,210,0.0,0.0,77,0.00,,,0.00,weatherlink.com 1.10,2013-09-06 10:06:00,
2013-09-06 04:21:00,67.0,60.0,29.63,WSW,256,0.0,4.0,77,0.00,,,0.00,weatherlink.com 1.10,2013-09-06 10:21:00,
2013-09-06 04:36:00,66.6,59.0,29.64,SSW,193,0.0,0.0,77,0.00,,,0.00,weatherlink.com 1.10,2013-09-06 10:36:00,
2013-09-06 04:51:00,65.1,58.0,29.64,SSW,195,0.0,0.0,77,0.00,,,0.00,weatherlink.com 1.10,2013-09-06 10:51:00,
2013-09-06 05:06:00,-999.0,-99.9,29.63,North,-999,-999.0,-999.0,-999,0.00,,,0.00,weatherlink.com 1.10,2013-09-06 11:06:00,
2013-09-06 05:21:00,-999.0,-99.9,29.63,North,-999,-999.0,-999.0,-999,0.00,,,0.00,weatherlink.com 1.10,2013-09-06 11:21:00,
2013-09-06 05:36:00,-999.0,-99.9,29.62,North,-999,-999.0,-999.0,-999,0.00,,,0.00,weatherlink.com 1.10,2013-09-06 11:36:00,
2013-09-06 05:51:00,-999.0,-99.9,29.63,North,-999,-999.0,-999.0,-999,0.00,,,0.00,weatherlink.com 1.10,2013-09-06 11:51:00,
2013-09-06 06:06:00,-999.0,-99.9,29.64,North,-999,-999.0,-999.0,-999,0.00,,,0.00,weatherlink.com 1.10,2013-09-06 12:06:00,
2013-09-06 06:21:00,-999.0,-99.9,29.64,North,-999,-999.0,-999.0,-999,0.00,,,0.00,weatherlink.com 1.10,2013-09-06 12:21:00,
2013-09-06 06:36:00,-999.0,-99.9,29.64,North,-999,-999.0,-999.0,-999,0.00,,,0.00,weatherlink.com 1.10,2013-09-06 12:36:00,
2013-09-06 06:51:00,-999.0,-99.9,29.64,North,-999,-999.0,-999.0,-999,0.00,,,0.00,weatherlink.com 1.10,2013-09-06 12:51:00,
2013-09-06 07:06:00,-999.0,-99.9,29.64,North,-999,-999.0,-999.0,-999,0.00,,,0.00,weatherlink.com 1.10,2013-09-06 13:06:00,
2013-09-06 07:21:00,66.0,59.0,29.64,WNW,295,0.0,0.0,77,0.00,,,0.00,weatherlink.com 1.10,2013-09-06 13:21:00,
2013-09-06 07:36:00,65.0,59.0,29.65,SW,226,0.0,0.0,81,0.00,,,0.00,weatherlink.com 1.10,2013-09-06 13:36:00,
2013-09-06 07:51:00,64.9,59.0,29.65,WSW,256,0.0,0.0,82,0.00,,,0.00,weatherlink.com 1.10,2013-09-06 13:51:00,
2013-09-06 08:06:00,66.3,60.0,29.65,SW,228,0.0,3.0,80,0.00,,,0.00,weatherlink.com 1.10,2013-09-06 14:06:00,
2013-09-06 08:21:00,68.3,61.0,29.66,WSW,248,0.0,0.0,77,0.00,,,0.00,weatherlink.com 1.10,2013-09-06 14:21:00,
2013-09-06 08:36:00,70.6,61.0,29.66,SSW,193,0.0,1.0,72,0.00,,,0.00,weatherlink.com 1.10,2013-09-06 14:36:00,
2013-09-06 08:51:00,72.5,61.0,29.66,SE,141,0.0,2.0,67,0.00,,,0.00,weatherlink.com 1.10,2013-09-06 14:51:00,
2013-09-06 09:06:00,74.3,60.0,29.66,SSE,152,0.0,1.0,62,0.00,,,0.00,weatherlink.com 1.10,2013-09-06 15:06:00,
2013-09-06 09:21:00,75.2,60.0,29.66,ESE,107,0.0,1.0,59,0.00,,,0.00,weatherlink.com 1.10,2013-09-06 15:21:00,
2013-09-06 09:36:00,76.5,57.0,29.66,West,274,0.0,1.0,52,0.00,,,0.00,weatherlink.com 1.10,2013-09-06 15:36:00,
2013-09-06 09:52:00,77.8,59.0,29.66,WNW,295,0.0,1.0,53,0.00,,,0.00,weatherlink.com 1.10,2013-09-06 15:52:00,
2013-09-06 10:07:00,79.6,59.0,29.66,WSW,239,0.0,0.0,50,0.00,,,0.00,weatherlink.com 1.10,2013-09-06 16:07:00,
2013-09-06 10:22:00,81.0,56.0,29.65,WNW,298,0.0,1.0,43,0.00,,,0.00,weatherlink.com 1.10,2013-09-06 16:22:00,
2013-09-06 10:37:00,82.9,59.0,29.66,SW,219,0.0,1.0,45,0.00,,,0.00,weatherlink.com 1.10,2013-09-06 16:37:00,
2013-09-06 10:52:00,83.3,62.0,29.66,WNW,297,0.0,1.0,48,0.00,,,0.00,weatherlink.com 1.10,2013-09-06 16:52:00,
2013-09-06 11:07:00,83.5,58.0,29.66,WSW,246,0.0,1.0,42,0.00,,,0.00,weatherlink.com 1.10,2013-09-06 17:07:00,
2013-09-06 11:22:00,83.0,58.0,29.66,WSW,249,0.0,5.0,43,0.00,,,0.00,weatherlink.com 1.10,2013-09-06 17:22:00,
2013-09-06 11:37:00,84.3,57.0,29.65,WNW,297,0.0,1.0,40,0.00,,,0.00,weatherlink.com 1.10,2013-09-06 17:37:00,
2013-09-06 11:52:00,-999.0,-99.9,29.65,North,-999,-999.0,-999.0,-999,0.00,,,0.00,weatherlink.com 1.10,2013-09-06 17:52:00,
2013-09-06 12:07:00,-999.0,-99.9,29.65,North,-999,-999.0,-999.0,-999,0.00,,,0.00,weatherlink.com 1.10,2013-09-06 18:07:00,
2013-09-06 12:22:00,-999.0,-99.9,29.64,North,-999,-999.0,-999.0,-999,0.00,,,0.00,weatherlink.com 1.10,2013-09-06 18:22:00,
2013-09-06 12:37:00,-999.0,-99.9,29.64,North,-999,-999.0,-999.0,-999,0.00,,,0.00,weatherlink.com 1.10,2013-09-06 18:37:00,
2013-09-06 12:52:00,-999.0,-99.9,29.63,North,-999,-999.0,-999.0,-999,0.00,,,0.00,weatherlink.com 1.10,2013-09-06 18:52:00,
2013-09-06 13:07:00,-999.0,-99.9,29.63,North,-999,-999.0,-999.0,-999,0.00,,,0.00,weatherlink.com 1.10,2013-09-06 19:07:00,
2013-09-06 13:22:00,-999.0,-99.9,29.63,North,-999,-999.0,-999.0,-999,0.00,,,0.00,weatherlink.com 1.10,2013-09-06 19:22:00,
2013-09-06 13:37:00,-999.0,-99.9,29.63,North,-999,-999.0,-999.0,-999,0.00,,,0.00,weatherlink.com 1.10,2013-09-06 19:37:00,
2013-09-06 13:52:00,-999.0,-99.9,29.62,North,-999,-999.0,-999.0,-999,0.00,,,0.00,weatherlink.com 1.10,2013-09-06 19:52:00,
2013-09-06 14:08:00,-999.0,-99.9,29.61,North,-999,-999.0,-999.0,-999,0.00,,,0.00,weatherlink.com 1.10,2013-09-06 20:08:00,
2013-09-06 14:23:00,-999.0,-99.9,29.61,North,-999,-999.0,-999.0,-999,0.00,,,0.00,weatherlink.com 1.10,2013-09-06 20:23:00,
2013-09-06 14:38:00,-999.0,-99.9,29.61,North,-999,-999.0,-999.0,-999,0.00,,,0.00,weatherlink.com 1.10,2013-09-06 20:38:00,
2013-09-06 14:53:00,-999.0,-99.9,29.61,North,-999,-999.0,-999.0,-999,0.00,,,0.00,weatherlink.com 1.10,2013-09-06 20:53:00,
2013-09-06 15:08:00,-999.0,-99.9,29.61,North,-999,-999.0,-999.0,-999,0.00,,,0.00,weatherlink.com 1.10,2013-09-06 21:08:00,
2013-09-06 15:23:00,-999.0,-99.9,29.60,North,-999,-999.0,-999.0,-999,0.00,,,0.00,weatherlink.com 1.10,2013-09-06 21:23:00,
2013-09-06 15:38:00,-999.0,-99.9,29.60,North,-999,-999.0,-999.0,-999,0.00,,,0.00,weatherlink.com 1.10,2013-09-06 21:38:00,
2013-09-06 15:53:00,-999.0,-99.9,29.60,North,-999,-999.0,-999.0,-999,0.00,,,0.00,weatherlink.com 1.10,2013-09-06 21:53:00,
2013-09-06 16:08:00,-999.0,-99.9,29.59,North,-999,-999.0,-999.0,-999,0.00,,,0.00,weatherlink.com 1.10,2013-09-06 22:08:00,
2013-09-06 16:23:00,-999.0,-99.9,29.59,North,-999,-999.0,-999.0,-999,0.00,,,0.00,weatherlink.com 1.10,2013-09-06 22:23:00,
2013-09-06 16:38:00,-999.0,-99.9,29.60,North,-999,-999.0,-999.0,-999,0.00,,,0.00,weatherlink.com 1.10,2013-09-06 22:38:00,
2013-09-06 16:53:00,-999.0,-99.9,29.60,North,-999,-999.0,-999.0,-999,0.00,,,0.00,weatherlink.com 1.10,2013-09-06 22:53:00,
2013-09-06 17:08:00,96.3,49.0,29.60,NE,43,9.0,10.0,20,0.00,,,0.00,weatherlink.com 1.10,2013-09-06 23:08:00,
2013-09-06 17:23:00,94.5,50.0,29.60,ENE,70,4.0,9.0,22,0.00,,,0.00,weatherlink.com 1.10,2013-09-06 23:23:00,
2013-09-06 17:38:00,93.6,49.0,29.61,NNE,23,7.0,9.0,22,0.00,,,0.00,weatherlink.com 1.10,2013-09-06 23:38:00,
2013-09-06 17:53:00,92.8,50.0,29.61,WNW,293,3.0,12.0,23,0.00,,,0.00,weatherlink.com 1.10,2013-09-06 23:53:00,
2013-09-06 18:08:00,92.4,50.0,29.61,North,352,5.0,6.0,23,0.00,,,0.00,weatherlink.com 1.10,2013-09-07 00:08:00,
2013-09-06 18:23:00,91.6,50.0,29.65,SSW,198,6.0,8.0,24,0.00,,,0.00,weatherlink.com 1.10,2013-09-07 00:23:00,
2013-09-06 18:38:00,82.7,56.0,29.64,SW,236,11.0,24.0,40,0.00,,,0.00,weatherlink.com 1.10,2013-09-07 00:38:00,
2013-09-06 18:53:00,74.2,58.0,29.67,WNW,293,9.0,21.0,58,0.01,,,0.01,weatherlink.com 1.10,2013-09-07 00:53:00,
2013-09-06 19:09:00,72.0,60.0,29.69,NNW,333,8.0,23.0,67,0.05,,,0.05,weatherlink.com 1.10,2013-09-07 01:09:00,
2013-09-06 19:24:00,71.5,61.0,29.72,SE,138,7.0,17.0,69,0.06,,,0.06,weatherlink.com 1.10,2013-09-07 01:24:00,
2013-09-06 19:39:00,70.6,61.0,29.73,SW,228,5.0,14.0,71,0.06,,,0.06,weatherlink.com 1.10,2013-09-07 01:39:00,
2013-09-06 19:54:00,70.6,61.0,29.73,SW,219,4.0,9.0,71,0.06,,,0.07,weatherlink.com 1.10,2013-09-07 01:54:00,
2013-09-06 20:09:00,71.2,58.0,29.75,SW,219,10.0,17.0,63,0.09,,,0.14,weatherlink.com 1.10,2013-09-07 02:09:00,
2013-09-06 20:24:00,75.3,58.0,29.73,ENE,72,7.0,7.0,55,0.09,,,0.15,weatherlink.com 1.10,2013-09-07 02:24:00,
2013-09-06 20:39:00,73.9,58.0,29.68,SE,125,13.0,21.0,57,0.11,,,0.17,weatherlink.com 1.10,2013-09-07 02:39:00,
2013-09-06 20:54:00,77.5,53.0,29.66,NNW,336,13.0,26.0,42,0.10,,,0.17,weatherlink.com 1.10,2013-09-07 02:54:00,
2013-09-06 21:09:00,83.4,51.0,29.64,NNE,14,12.0,16.0,32,0.03,,,0.17,weatherlink.com 1.10,2013-09-07 03:09:00,
2013-09-06 21:24:00,83.4,53.0,29.65,WSW,243,4.0,23.0,35,0.02,,,0.17,weatherlink.com 1.10,2013-09-07 03:24:00,
2013-09-06 21:39:00,78.1,56.0,29.66,NW,314,0.0,4.0,47,0.00,,,0.17,weatherlink.com 1.10,2013-09-07 03:39:00,
2013-09-06 21:54:00,77.9,54.0,29.65,WSW,257,0.0,4.0,44,0.00,,,0.17,weatherlink.com 1.10,2013-09-07 03:54:00,
2013-09-06 22:09:00,77.0,56.0,29.66,NW,326,0.0,7.0,48,0.00,,,0.17,weatherlink.com 1.10,2013-09-07 04:09:00,
2013-09-06 22:24:00,75.9,56.0,29.66,SE,145,0.0,5.0,50,0.00,,,0.17,weatherlink.com 1.10,2013-09-07 04:24:00,
2013-09-06 22:39:00,74.7,57.0,29.66,South,170,3.0,3.0,54,0.00,,,0.17,weatherlink.com 1.10,2013-09-07 04:39:00,
2013-09-06 22:54:00,73.1,58.0,29.66,SSW,205,2.0,7.0,59,0.00,,,0.17,weatherlink.com 1.10,2013-09-07 04:54:00,
2013-09-06 23:09:00,71.3,59.0,29.67,SSW,195,4.0,10.0,65,0.00,,,0.17,weatherlink.com 1.10,2013-09-07 05:09:00,
2013-09-06 23:24:00,71.8,58.0,29.67,SSE,159,2.0,9.0,63,0.00,,,0.17,weatherlink.com 1.10,2013-09-07 05:24:00,
2013-09-06 23:39:00,71.4,58.0,29.66,SE,139,1.0,8.0,63,0.00,,,0.17,weatherlink.com 1.10,2013-09-07 05:39:00,
2013-09-06 23:54:00,72.3,56.0,29.67,SSW,208,0.0,1.0,57,0.00,,,0.17,weatherlink.com 1.10,2013-09-07 05:54:00,